createdAt,value
2023-05-10T00:01:28.998Z,20.97
2023-05-10T00:06:33.900Z,20.94
2023-05-10T00:11:37.345Z,20.94
2023-05-10T00:16:40.987Z,20.94
2023-05-10T00:21:45.942Z,20.93
2023-05-10T00:26:49.465Z,20.94
2023-05-10T00:31:52.946Z,20.93
2023-05-10T00:36:57.911Z,20.92
2023-05-10T00:42:01.517Z,20.93
2023-05-10T00:47:05.105Z,20.92
2023-05-10T00:52:10.641Z,20.91
2023-05-10T00:57:14.175Z,20.91
2023-05-10T01:02:17.667Z,20.91
2023-05-10T01:07:22.616Z,20.90
2023-05-10T01:12:26.437Z,20.88
2023-05-10T01:17:30.251Z,20.87
2023-05-10T01:22:59.755Z,20.87
2023-05-10T01:28:40.575Z,20.87
2023-05-10T01:33:49.945Z,20.86
2023-05-10T01:38:57.862Z,20.85
2023-05-10T01:44:05.898Z,20.84
2023-05-10T01:49:12.160Z,20.82
2023-05-10T01:54:16.800Z,20.83
2023-05-10T01:59:21.967Z,20.82
2023-05-10T02:04:28.086Z,20.79
2023-05-10T02:09:32.634Z,20.78
2023-05-10T02:14:38.552Z,20.79
2023-05-10T02:19:44.394Z,20.78
2023-05-10T02:24:48.932Z,20.78
2023-05-10T02:29:53.326Z,20.79
2023-05-10T02:34:58.309Z,20.77
2023-05-10T02:40:04.487Z,20.76
2023-05-10T02:45:11.055Z,20.75
2023-05-10T02:50:16.505Z,20.74
2023-05-10T02:55:22.845Z,20.75
2023-05-10T03:00:26.994Z,20.74
2023-05-10T03:05:32.098Z,20.74
2023-05-10T03:10:36.508Z,20.72
2023-05-10T03:15:44.968Z,20.74
2023-05-10T03:20:51.597Z,20.73
2023-05-10T03:25:55.417Z,20.71
2023-05-10T03:30:59.214Z,20.72
2023-05-10T03:36:04.132Z,20.69
2023-05-10T03:41:07.782Z,20.71
2023-05-10T03:46:11.250Z,20.67
2023-05-10T03:51:16.175Z,20.68
2023-05-10T03:56:19.657Z,20.69
2023-05-10T04:01:23.107Z,20.67
2023-05-10T04:06:27.974Z,20.65
2023-05-10T04:11:31.514Z,20.65
2023-05-10T04:16:35.046Z,20.64
2023-05-10T04:21:40.339Z,20.62
2023-05-10T04:26:43.786Z,20.62
2023-05-10T04:31:47.220Z,20.63
2023-05-10T04:36:52.122Z,20.60
2023-05-10T04:41:55.594Z,20.60
2023-05-10T04:46:59.140Z,20.58
2023-05-10T04:52:04.032Z,20.59
2023-05-10T04:57:07.450Z,20.59
2023-05-10T05:02:10.983Z,20.58
2023-05-10T05:07:15.996Z,20.59
2023-05-10T05:12:19.513Z,20.55
2023-05-10T05:17:23.000Z,20.55
2023-05-10T05:22:29.048Z,20.55
2023-05-10T05:27:32.521Z,20.55
2023-05-10T05:32:36.049Z,20.53
2023-05-10T05:37:41.185Z,20.54
2023-05-10T05:42:44.710Z,20.54
2023-05-10T05:47:48.422Z,20.53
2023-05-10T05:52:53.487Z,20.53
2023-05-10T05:57:56.991Z,20.52
2023-05-10T06:03:00.634Z,20.51
2023-05-10T06:08:06.017Z,20.52
2023-05-10T06:13:09.651Z,20.52
2023-05-10T06:18:13.231Z,20.51
2023-05-10T06:23:18.192Z,20.51
2023-05-10T06:28:21.648Z,20.51
2023-05-10T06:33:25.076Z,20.51
2023-05-10T06:38:30.128Z,20.51
2023-05-10T06:43:33.817Z,20.53
2023-05-10T06:48:37.548Z,20.52
2023-05-10T06:53:42.458Z,20.54
2023-05-10T06:58:46.076Z,20.53
2023-05-10T07:03:49.600Z,20.54
2023-05-10T07:08:54.441Z,20.54
2023-05-10T07:13:57.951Z,20.54
2023-05-10T07:19:01.457Z,20.56
2023-05-10T07:24:06.563Z,20.56
2023-05-10T07:29:10.119Z,20.56
2023-05-10T07:34:13.682Z,20.56
2023-05-10T07:39:26.613Z,20.57
2023-05-10T07:44:31.057Z,20.57
2023-05-10T07:49:34.544Z,20.60
2023-05-10T07:54:39.799Z,20.59
2023-05-10T07:59:44.043Z,20.59
2023-05-10T08:04:47.633Z,20.60
2023-05-10T08:09:52.559Z,20.60
2023-05-10T08:14:56.021Z,20.60
2023-05-10T08:19:59.506Z,20.60
2023-05-10T08:25:04.360Z,20.63
2023-05-10T08:30:09.248Z,20.61
2023-05-10T08:35:12.745Z,20.62
2023-05-10T08:40:18.043Z,20.61
2023-05-10T08:45:22.632Z,20.64
2023-05-10T08:50:27.324Z,20.64
2023-05-10T08:55:32.492Z,20.63
2023-05-10T09:00:36.857Z,20.64
2023-05-10T09:05:40.467Z,20.63
2023-05-10T09:10:45.401Z,20.65
2023-05-10T09:15:49.686Z,20.64
2023-05-10T09:20:53.217Z,20.65
2023-05-10T09:26:06.548Z,20.64
2023-05-10T09:31:10.087Z,20.64
2023-05-10T09:36:14.284Z,20.65
2023-05-10T09:41:23.725Z,20.65
2023-05-10T09:46:27.282Z,20.65
2023-05-10T09:51:30.808Z,20.66
2023-05-10T09:56:41.307Z,20.66
2023-05-10T10:01:45.394Z,20.66
2023-05-10T10:06:48.946Z,20.68
2023-05-10T10:11:53.844Z,20.67
2023-05-10T10:17:07.283Z,20.67
2023-05-10T10:22:13.134Z,20.68
2023-05-10T10:27:25.384Z,20.67
2023-05-10T10:32:34.944Z,20.69
2023-05-10T10:37:46.992Z,20.68
2023-05-10T10:42:52.435Z,20.69
2023-05-10T10:48:23.325Z,20.68
2023-05-10T10:53:29.655Z,20.69
2023-05-10T10:58:35.835Z,20.68
2023-05-10T11:03:39.416Z,20.67
2023-05-10T11:08:46.207Z,20.68
2023-05-10T11:13:51.655Z,20.68
2023-05-10T11:18:56.818Z,20.68
2023-05-10T11:24:01.222Z,20.67
2023-05-10T11:29:06.294Z,20.67
2023-05-10T11:34:09.795Z,20.69
2023-05-10T11:39:13.314Z,20.68
2023-05-10T11:44:18.228Z,20.69
2023-05-10T11:49:21.797Z,20.68
2023-05-10T11:54:25.701Z,20.68
2023-05-10T11:59:30.619Z,20.67
2023-05-10T12:04:34.298Z,20.68
2023-05-10T12:09:43.800Z,20.69
2023-05-10T12:14:52.770Z,20.69
2023-05-10T12:19:56.253Z,20.69
2023-05-10T12:25:01.464Z,20.69
2023-05-10T12:30:07.538Z,20.68
2023-05-10T12:35:11.062Z,20.69
2023-05-10T12:40:14.914Z,20.69
2023-05-10T12:45:20.496Z,20.70
2023-05-10T12:50:25.499Z,20.67
2023-05-10T12:55:29.008Z,20.68
2023-05-10T13:00:33.915Z,20.68
2023-05-10T13:05:37.409Z,20.69
2023-05-10T13:10:41.526Z,20.68
2023-05-10T13:15:46.410Z,20.69
2023-05-10T13:20:50.762Z,20.68
2023-05-10T13:25:54.292Z,20.68
2023-05-10T13:31:01.192Z,20.69
2023-05-10T13:36:04.780Z,20.69
2023-05-10T13:41:08.261Z,20.68
2023-05-10T13:46:13.242Z,20.69
2023-05-10T13:51:16.847Z,20.70
2023-05-10T13:56:20.345Z,20.68
2023-05-10T14:01:25.270Z,20.68
2023-05-10T14:06:28.938Z,20.68
2023-05-10T14:11:32.605Z,20.67
2023-05-10T14:16:37.612Z,20.68
2023-05-10T14:21:41.419Z,20.70
2023-05-10T14:26:44.891Z,20.69
2023-05-10T14:31:49.901Z,20.69
2023-05-10T14:36:53.440Z,20.68
2023-05-10T14:41:56.955Z,20.69
2023-05-10T14:47:01.910Z,20.69
2023-05-10T14:52:05.500Z,20.70
2023-05-10T14:57:09.105Z,20.67
2023-05-10T15:02:14.706Z,20.69
2023-05-10T15:07:19.548Z,20.70
2023-05-10T15:12:23.105Z,20.69
2023-05-10T15:17:28.102Z,20.69
2023-05-10T15:22:34.317Z,20.67
2023-05-10T15:27:38.214Z,20.66
2023-05-10T15:32:44.198Z,20.68
2023-05-10T15:37:49.399Z,20.67
2023-05-10T15:42:52.971Z,20.68
2023-05-10T15:47:57.849Z,20.67
2023-05-10T15:53:01.640Z,20.67
2023-05-10T15:58:05.138Z,20.68
2023-05-10T16:03:10.222Z,20.68
2023-05-10T16:08:13.735Z,20.68
2023-05-10T16:13:18.591Z,20.68
2023-05-10T16:18:23.602Z,20.69
2023-05-10T16:23:28.240Z,20.69
2023-05-10T16:28:32.599Z,20.70
2023-05-10T16:33:37.541Z,20.70
2023-05-10T16:38:41.807Z,20.70
2023-05-10T16:43:45.296Z,20.71
2023-05-10T16:48:50.174Z,20.71
2023-05-10T16:53:53.692Z,20.71
2023-05-10T16:58:57.141Z,20.71
2023-05-10T17:04:02.118Z,20.71
2023-05-10T17:09:07.468Z,20.71
2023-05-10T17:14:11.141Z,20.71
2023-05-10T17:19:16.228Z,20.71
2023-05-10T17:24:19.860Z,20.72
2023-05-10T17:29:23.372Z,20.71
2023-05-10T17:34:28.282Z,20.71
2023-05-10T17:39:31.776Z,20.73
2023-05-10T17:44:35.213Z,20.74
2023-05-10T17:49:41.026Z,20.72
2023-05-10T17:54:44.512Z,20.72
2023-05-10T17:59:47.997Z,20.72
2023-05-10T18:04:52.973Z,20.73
2023-05-10T18:09:56.590Z,20.74
2023-05-10T18:15:00.121Z,20.73
2023-05-10T18:20:06.258Z,20.74
2023-05-10T18:25:10.497Z,20.74
2023-05-10T18:30:15.645Z,20.74
2023-05-10T18:35:20.742Z,20.75
2023-05-10T18:40:24.468Z,20.76
2023-05-10T18:45:27.892Z,20.74
2023-05-10T18:50:32.885Z,20.74
2023-05-10T18:55:36.367Z,20.75
2023-05-10T19:00:39.863Z,20.75
2023-05-10T19:05:44.700Z,20.74
2023-05-10T19:10:48.157Z,20.75
2023-05-10T19:16:04.858Z,20.76
2023-05-10T19:21:11.099Z,20.75
2023-05-10T19:26:14.692Z,20.75
2023-05-10T19:31:18.224Z,20.75
2023-05-10T19:36:23.163Z,20.75
2023-05-10T19:41:27.033Z,20.75
2023-05-10T19:46:31.347Z,20.76
2023-05-10T19:51:36.343Z,20.76
2023-05-10T19:56:39.985Z,20.75
2023-05-10T20:01:43.441Z,20.76
2023-05-10T20:06:48.335Z,20.76
2023-05-10T20:11:51.802Z,20.76
2023-05-10T20:16:55.324Z,20.75
2023-05-10T20:22:00.256Z,20.75
2023-05-10T20:27:04.860Z,20.76
2023-05-10T20:32:08.325Z,20.75
2023-05-10T20:37:13.479Z,20.75
2023-05-10T20:42:16.987Z,20.76
2023-05-10T20:47:20.572Z,20.75
2023-05-10T20:52:25.444Z,20.76
2023-05-10T20:57:29.024Z,20.75
2023-05-10T21:02:32.540Z,20.74
2023-05-10T21:07:37.505Z,20.75
2023-05-10T21:12:40.988Z,20.73
2023-05-10T21:17:44.485Z,20.73
2023-05-10T21:22:49.422Z,20.73
2023-05-10T21:27:52.937Z,20.73
2023-05-10T21:32:59.885Z,20.73
2023-05-10T21:38:04.978Z,20.73
2023-05-10T21:43:08.531Z,20.72
2023-05-10T21:48:12.000Z,20.72
2023-05-10T21:53:16.924Z,20.72
2023-05-10T21:58:20.618Z,20.72
2023-05-10T22:03:24.215Z,20.72
2023-05-10T22:08:29.336Z,20.71
2023-05-10T22:13:32.834Z,20.71
2023-05-10T22:18:36.416Z,20.72
2023-05-10T22:23:41.402Z,20.72
2023-05-10T22:28:44.982Z,20.73
2023-05-10T22:33:48.807Z,20.73
2023-05-10T22:38:53.694Z,20.72
2023-05-10T22:43:57.205Z,20.72
2023-05-10T22:49:00.707Z,20.72
2023-05-10T22:54:07.322Z,20.70
2023-05-10T22:59:10.869Z,20.70
2023-05-10T23:04:14.374Z,20.70
2023-05-10T23:09:19.340Z,20.70
2023-05-10T23:14:22.797Z,20.68
2023-05-10T23:19:26.295Z,20.69
2023-05-10T23:24:31.179Z,20.69
2023-05-10T23:29:35.007Z,20.68
2023-05-10T23:34:38.536Z,20.69
2023-05-10T23:39:43.481Z,20.66
2023-05-10T23:44:47.036Z,20.67
2023-05-10T23:49:51.500Z,20.66
2023-05-10T23:54:56.540Z,20.66
